Van Buren, IN (46991)

6:46 AM EST on February 25, 2017 (GMT -0500)
South Huntington County | | Change Station

Elev 853 ft 40.66 °N, 85.51 °W | Updated 1 second ago

Overcast
Overcast
34.5 °F
Feels Like 25 °F
N
15.2
Wind Variable Wind from WSW
Gusts 17.4 mph

Today
High -- | Low -- °F
--% Chance of Precip.
Yesterday
High -- | Low -- °F
Precip. -- in
Pressure 29.67 in
Visibility 7.0 miles
Clouds Overcast 1300 ft
Windchill 25 °F
Dew Point 34 °F
Humidity 99%
Rainfall 0.00 in
Snow Depth Not available.
7:21 AM 6:29 PM
Waning Crescent, 2% visible
METAR KMZZ 251135Z AUTO 25022G27KT 7SM -SN OVC013 01/00 A2967 RMK AO2 T00091004
Pressure 29.67 in
Visibility 7.0 miles
Clouds Overcast 1300 ft
Windchill 25 °F
Dew Point 34 °F
Humidity 99%
Rainfall 0.00 in
Snow Depth Not available.
7:21 AM 6:29 PM
Waning Crescent, 2% visible
METAR KMZZ 251135Z AUTO 25022G27KT 7SM -SN OVC013 01/00 A2967 RMK AO2 T00091004

Get Your Daily Forecast Email!

Thanks for signing up!

Be on the lookout for a verification email in your inbox.

You'll start receiving the daily forecast at 8 AM.

×

10-Day Weather Forecast

Almanac

Astronomy

Feb. 25, 2017 Rise Set
Actual Time
Civil Twilight
Nautical Twilight
Astronomical Twilight
Moon
Length of Visible Light
Length of Day
Tomorrow will be .
, % of the Moon is Illuminated

Today's Extremes

State Highs State Lows

Community

WunderPhotos

Upload Photos

1,962,540 photos uploaded!

WunderBlog® & News

Nearby

Air Quality

  Air Quality AQ Index Pollutant
Not available.

Snow Depth

Station Depth Elevation

Earthquake Activity

City Distance Mag. Time & Date
Minimum magnitude displayed is 2.5.

Coastal Water Temperatures

Place Temperature

Stations

Nearby Weather Stations

Station Location Temp. Windchill Dew Point Humidity Wind Precip. Elev Updated Type
                   

Watches & Warnings

There are currently no watches in effect.